createdAt,value
2024-05-09T00:00:48.021Z,11.85
2024-05-09T00:03:15.266Z,14.82
2024-05-09T00:05:43.354Z,12.70
2024-05-09T00:08:11.403Z,12.90
2024-05-09T00:10:40.022Z,10.52
2024-05-09T00:13:08.878Z,12.77
2024-05-09T00:15:37.048Z,10.68
2024-05-09T00:18:08.174Z,11.55
2024-05-09T00:20:39.543Z,15.75
2024-05-09T00:23:10.870Z,12.23
2024-05-09T00:25:39.024Z,10.00
2024-05-09T00:28:06.542Z,9.25
2024-05-09T00:30:36.155Z,9.32
2024-05-09T00:33:11.601Z,11.05
2024-05-09T00:35:39.914Z,8.63
2024-05-09T00:38:07.343Z,12.30
2024-05-09T00:40:40.128Z,6.88
2024-05-09T00:43:14.104Z,7.10
2024-05-09T00:45:42.792Z,9.35
2024-05-09T00:48:17.750Z,7.85
2024-05-09T00:50:47.614Z,8.63
2024-05-09T00:53:17.491Z,7.05
2024-05-09T00:55:46.506Z,10.93
2024-05-09T00:58:20.983Z,9.70
2024-05-09T01:00:50.027Z,9.90
2024-05-09T01:03:18.245Z,7.10
2024-05-09T01:05:45.799Z,6.57
2024-05-09T01:08:13.452Z,7.93
2024-05-09T01:10:45.101Z,8.48
2024-05-09T01:13:14.278Z,9.18
2024-05-09T01:15:41.738Z,7.35
2024-05-09T01:18:13.279Z,9.13
2024-05-09T01:20:43.895Z,9.00
2024-05-09T01:23:14.874Z,8.73
2024-05-09T01:25:45.292Z,9.95
2024-05-09T01:28:13.351Z,10.63
2024-05-09T01:30:40.599Z,8.18
2024-05-09T01:33:09.947Z,9.10
2024-05-09T01:35:41.328Z,7.47
2024-05-09T01:38:10.086Z,9.45
2024-05-09T01:40:39.761Z,9.95
2024-05-09T01:43:09.654Z,7.90
2024-05-09T01:45:38.665Z,9.50
2024-05-09T01:48:06.369Z,9.30
2024-05-09T01:50:38.888Z,9.00
2024-05-09T01:53:10.565Z,9.10
2024-05-09T01:55:37.836Z,10.93
2024-05-09T01:58:05.098Z,9.65
2024-05-09T02:00:38.899Z,10.00
2024-05-09T02:03:15.905Z,8.85
2024-05-09T02:05:46.875Z,9.23
2024-05-09T02:08:19.337Z,11.75
2024-05-09T02:10:48.253Z,9.25
2024-05-09T02:13:18.024Z,11.45
2024-05-09T02:15:45.330Z,6.47
2024-05-09T02:18:13.426Z,9.80
2024-05-09T02:20:42.395Z,9.73
2024-05-09T02:23:10.513Z,10.13
2024-05-09T02:25:37.694Z,8.45
2024-05-09T02:28:05.037Z,10.60
2024-05-09T02:30:39.442Z,10.50
2024-05-09T02:33:13.124Z,10.10
2024-05-09T02:35:43.783Z,10.98
2024-05-09T02:38:12.511Z,14.57
2024-05-09T02:40:40.504Z,9.57
2024-05-09T02:43:10.190Z,8.88
2024-05-09T02:45:38.994Z,10.98
2024-05-09T02:48:07.161Z,10.63
2024-05-09T02:50:38.754Z,9.25
2024-05-09T02:53:08.400Z,10.13
2024-05-09T02:55:36.101Z,10.10
2024-05-09T02:58:03.121Z,10.07
2024-05-09T03:00:38.206Z,8.85
2024-05-09T03:03:09.991Z,13.38
2024-05-09T03:05:39.126Z,10.65
2024-05-09T03:08:06.569Z,9.02
2024-05-09T03:10:36.625Z,10.45
2024-05-09T03:15:33.240Z,8.70
2024-05-09T03:18:01.463Z,8.57
2024-05-09T03:20:34.035Z,8.40
2024-05-09T03:23:03.518Z,8.93
2024-05-09T03:25:30.819Z,9.63
2024-05-09T03:27:57.836Z,8.85
2024-05-09T03:30:38.128Z,9.02
2024-05-09T03:33:20.162Z,9.38
2024-05-09T03:35:49.088Z,10.43
2024-05-09T03:38:17.068Z,8.77
2024-05-09T03:40:49.297Z,8.82
2024-05-09T03:43:17.924Z,10.52
2024-05-09T03:45:45.925Z,7.20
2024-05-09T03:48:13.540Z,8.30
2024-05-09T03:50:41.328Z,9.88
2024-05-09T03:53:13.468Z,6.07
2024-05-09T03:55:41.007Z,5.20
2024-05-09T03:58:08.541Z,7.28
2024-05-09T04:00:39.160Z,6.85
2024-05-09T04:03:10.611Z,14.30
2024-05-09T04:05:40.807Z,9.57
2024-05-09T04:08:09.511Z,7.65
2024-05-09T04:10:40.527Z,7.38
2024-05-09T04:13:07.678Z,7.75
2024-05-09T04:15:34.778Z,7.60
2024-05-09T04:18:02.670Z,5.85
2024-05-09T04:20:37.950Z,6.85
2024-05-09T04:23:11.384Z,7.22
2024-05-09T04:25:41.082Z,4.90
2024-05-09T04:28:09.037Z,3.47
2024-05-09T04:30:39.421Z,5.85
2024-05-09T04:33:11.168Z,7.20
2024-05-09T04:35:42.632Z,6.82
2024-05-09T04:38:10.287Z,5.60
2024-05-09T04:40:37.910Z,6.85
2024-05-09T04:43:06.719Z,6.63
2024-05-09T04:45:36.423Z,6.13
2024-05-09T04:48:03.914Z,7.40
2024-05-09T04:50:36.847Z,6.88
2024-05-09T04:53:10.665Z,7.00
2024-05-09T04:55:39.954Z,8.10
2024-05-09T04:58:09.276Z,8.15
2024-05-09T05:00:39.013Z,5.47
2024-05-09T05:03:14.573Z,4.50
2024-05-09T05:05:45.384Z,5.65
2024-05-09T05:08:19.012Z,4.78
2024-05-09T05:10:48.208Z,4.88
2024-05-09T05:13:17.972Z,4.10
2024-05-09T05:15:57.237Z,4.53
2024-05-09T05:18:26.734Z,6.85
2024-05-09T05:20:56.057Z,3.95
2024-05-09T05:23:23.426Z,4.93
2024-05-09T05:25:55.377Z,5.22
2024-05-09T05:28:23.044Z,5.45
2024-05-09T05:30:50.375Z,3.70
2024-05-09T05:33:22.529Z,4.15
2024-05-09T05:35:50.337Z,9.70
2024-05-09T05:38:17.428Z,7.68
2024-05-09T05:40:44.677Z,5.03
2024-05-09T05:43:18.938Z,4.88
2024-05-09T05:45:46.407Z,3.90
2024-05-09T05:48:17.822Z,3.15
2024-05-09T05:53:12.582Z,4.97
2024-05-09T05:55:40.965Z,3.33
2024-05-09T05:58:14.564Z,4.32
2024-05-09T06:00:42.487Z,4.85
2024-05-09T06:03:16.264Z,5.65
2024-05-09T06:05:44.488Z,4.40
2024-05-09T06:08:12.570Z,2.17
2024-05-09T06:10:41.654Z,5.13
2024-05-09T06:13:15.962Z,2.13
2024-05-09T06:15:46.433Z,4.90
2024-05-09T06:18:16.712Z,2.95
2024-05-09T06:20:44.426Z,4.38
2024-05-09T06:23:14.578Z,2.72
2024-05-09T06:25:42.925Z,3.13
2024-05-09T06:28:14.333Z,3.10
2024-05-09T06:30:42.957Z,2.50
2024-05-09T06:33:18.443Z,3.53
2024-05-09T06:42:25.235Z,1.90
2024-05-09T06:44:52.466Z,2.05
2024-05-09T06:47:19.702Z,3.70
2024-05-09T06:49:53.521Z,4.07
2024-05-09T06:52:20.716Z,2.75
2024-05-09T06:54:53.746Z,1.77
2024-05-09T06:57:23.877Z,2.88
2024-05-09T06:59:52.432Z,2.90
2024-05-09T07:02:29.806Z,3.30
2024-05-09T07:05:00.018Z,3.30
2024-05-09T07:07:29.855Z,3.38
2024-05-09T07:09:57.283Z,3.17
2024-05-09T07:12:24.943Z,1.95
2024-05-09T07:14:55.136Z,2.22
2024-05-09T07:17:25.271Z,3.20
2024-05-09T07:19:55.605Z,4.85
2024-05-09T07:22:27.945Z,2.55
2024-05-09T07:24:55.062Z,2.67
2024-05-09T07:27:34.278Z,5.53
2024-05-09T07:30:16.710Z,4.55
2024-05-09T07:32:50.715Z,3.15
2024-05-09T07:35:25.482Z,2.40
2024-05-09T07:37:59.708Z,3.10
2024-05-09T07:40:44.920Z,2.08
2024-05-09T07:43:18.441Z,1.15
2024-05-09T07:45:54.131Z,4.22
2024-05-09T07:50:34.290Z,1.05
2024-05-09T07:53:08.601Z,1.98
2024-05-09T07:54:17.553Z,2.10
2024-05-09T07:56:51.358Z,3.05
2024-05-09T07:59:19.467Z,2.42
2024-05-09T08:01:48.676Z,4.00
2024-05-09T08:04:26.724Z,2.00
2024-05-09T08:06:57.890Z,2.75
2024-05-09T08:09:30.991Z,5.50
2024-05-09T08:12:02.274Z,3.60
2024-05-09T08:14:30.314Z,2.80
2024-05-09T08:17:04.281Z,3.03
2024-05-09T08:19:31.938Z,3.25
2024-05-09T08:22:09.443Z,1.35
2024-05-09T08:24:57.754Z,1.95
2024-05-09T08:27:32.668Z,5.53
2024-05-09T08:30:10.092Z,1.63
2024-05-09T08:32:39.638Z,3.97
2024-05-09T08:35:07.153Z,2.85
2024-05-09T08:37:38.710Z,3.80
2024-05-09T08:40:11.142Z,4.20
2024-05-09T08:42:52.921Z,8.88
2024-05-09T08:45:20.082Z,6.65
2024-05-09T08:47:53.798Z,2.90
2024-05-09T08:50:31.637Z,5.40
2024-05-09T08:53:09.097Z,4.15
2024-05-09T08:55:40.543Z,2.78
2024-05-09T08:58:14.150Z,1.77
2024-05-09T09:00:43.356Z,1.20
2024-05-09T09:03:14.791Z,2.35
2024-05-09T09:05:47.180Z,5.10
2024-05-09T09:08:15.951Z,3.28
2024-05-09T09:10:43.520Z,2.80
2024-05-09T09:13:11.353Z,3.45
2024-05-09T09:15:51.215Z,1.75
2024-05-09T09:18:19.008Z,2.00
2024-05-09T09:20:46.274Z,3.70
2024-05-09T09:23:13.416Z,2.60
2024-05-09T09:25:43.400Z,2.53
2024-05-09T09:28:10.724Z,2.42
2024-05-09T09:30:41.990Z,5.18
2024-05-09T09:33:10.324Z,5.68
2024-05-09T09:35:40.012Z,3.72
2024-05-09T09:38:08.157Z,5.90
2024-05-09T09:40:46.699Z,3.58
2024-05-09T09:43:23.391Z,5.82
2024-05-09T09:45:53.338Z,4.00
2024-05-09T09:48:22.838Z,3.40
2024-05-09T09:50:52.630Z,4.38
2024-05-09T09:53:20.110Z,2.75
2024-05-09T09:55:49.240Z,4.20
2024-05-09T09:58:18.270Z,4.80
2024-05-09T10:00:45.990Z,4.18
2024-05-09T10:03:13.459Z,5.55
2024-05-09T10:05:46.145Z,6.97
2024-05-09T10:08:16.804Z,3.83
2024-05-09T10:10:50.124Z,4.07
2024-05-09T10:13:18.104Z,4.03
2024-05-09T10:15:53.843Z,4.03
2024-05-09T10:18:27.288Z,5.72
2024-05-09T10:20:56.704Z,4.05
2024-05-09T10:23:24.924Z,3.42
2024-05-09T10:25:59.132Z,5.30
2024-05-09T10:28:30.540Z,4.03
2024-05-09T10:31:11.533Z,4.13
2024-05-09T10:33:53.398Z,3.85
2024-05-09T10:36:23.320Z,4.20
2024-05-09T10:38:51.639Z,7.00
2024-05-09T10:41:20.140Z,2.97
2024-05-09T10:43:48.020Z,6.22
2024-05-09T10:46:15.978Z,7.45
2024-05-09T10:48:44.835Z,3.85
2024-05-09T10:51:13.615Z,5.80
2024-05-09T10:53:45.250Z,8.98
2024-05-09T10:56:14.634Z,8.65
2024-05-09T10:58:42.202Z,4.65
2024-05-09T11:01:10.419Z,5.70
2024-05-09T11:03:38.801Z,7.97
2024-05-09T11:06:06.949Z,7.90
2024-05-09T11:08:35.245Z,6.45
2024-05-09T11:11:07.139Z,7.85
2024-05-09T11:13:36.501Z,7.95
2024-05-09T11:16:04.765Z,5.85
2024-05-09T11:18:36.513Z,7.43
2024-05-09T11:21:13.658Z,3.20
2024-05-09T11:23:41.450Z,7.28
2024-05-09T11:26:09.280Z,11.38
2024-05-09T11:28:36.337Z,4.55
2024-05-09T11:31:08.371Z,6.82
2024-05-09T11:33:44.350Z,3.97
2024-05-09T11:36:12.031Z,7.32
2024-05-09T11:38:39.283Z,6.18
2024-05-09T11:41:06.886Z,9.88
2024-05-09T11:43:33.988Z,5.78
2024-05-09T11:46:02.831Z,4.78
2024-05-09T11:48:30.735Z,4.18
2024-05-09T11:50:58.142Z,5.65
2024-05-09T11:53:25.115Z,4.22
2024-05-09T11:55:52.380Z,6.13
2024-05-09T11:58:21.606Z,7.70
2024-05-09T12:00:49.099Z,6.03
2024-05-09T12:03:16.265Z,6.32
2024-05-09T12:05:45.134Z,6.22
2024-05-09T12:08:12.519Z,7.22
2024-05-09T12:10:39.678Z,5.90
2024-05-09T12:13:07.576Z,4.25
2024-05-09T12:15:38.870Z,3.53
2024-05-09T12:18:08.111Z,3.40
2024-05-09T12:20:38.729Z,6.95
2024-05-09T12:23:09.870Z,5.28
2024-05-09T12:25:39.195Z,6.75
2024-05-09T12:28:07.700Z,7.82
2024-05-09T12:30:38.753Z,5.47
2024-05-09T12:33:09.015Z,6.43
2024-05-09T12:35:36.595Z,8.23
2024-05-09T12:38:04.396Z,7.15
2024-05-09T12:40:36.618Z,8.13
2024-05-09T12:43:10.039Z,7.95
2024-05-09T12:45:38.720Z,3.95
2024-05-09T12:48:11.912Z,5.93
2024-05-09T12:50:39.824Z,4.90
2024-05-09T12:53:07.336Z,8.20
2024-05-09T12:55:43.732Z,4.07
2024-05-09T12:58:19.546Z,6.60
2024-05-09T13:00:47.304Z,8.13
2024-05-09T13:03:15.929Z,7.75
2024-05-09T13:05:45.354Z,6.13
2024-05-09T13:08:13.529Z,6.88
2024-05-09T13:10:41.076Z,6.38
2024-05-09T13:13:10.478Z,5.25
2024-05-09T13:15:37.910Z,6.47
2024-05-09T13:18:06.146Z,10.85
2024-05-09T13:20:35.554Z,8.18
2024-05-09T13:23:05.385Z,7.85
2024-05-09T13:25:38.087Z,5.15
2024-05-09T13:28:06.978Z,6.40
2024-05-09T13:30:39.559Z,7.15
2024-05-09T13:33:14.519Z,5.00
2024-05-09T13:35:47.051Z,10.20
2024-05-09T13:38:18.455Z,9.93
2024-05-09T13:40:45.908Z,7.53
2024-05-09T13:43:13.780Z,5.68
2024-05-09T13:45:40.966Z,6.95
2024-05-09T13:48:10.118Z,7.07
2024-05-09T13:50:37.655Z,8.90
2024-05-09T13:53:07.247Z,8.00
2024-05-09T13:55:38.377Z,6.30
2024-05-09T13:58:06.628Z,9.48
2024-05-09T14:00:44.072Z,8.57
2024-05-09T14:03:17.016Z,8.48
2024-05-09T14:05:45.772Z,9.88
2024-05-09T14:08:15.350Z,10.18
2024-05-09T14:10:44.446Z,7.78
2024-05-09T14:13:13.129Z,6.20
2024-05-09T14:15:40.908Z,7.03
2024-05-09T14:18:12.383Z,4.55
2024-05-09T14:20:41.299Z,5.93
2024-05-09T14:23:08.464Z,7.18
2024-05-09T14:25:39.043Z,5.68
2024-05-09T14:28:09.715Z,5.57
2024-05-09T14:30:38.512Z,8.68
2024-05-09T14:33:07.364Z,5.72
2024-05-09T14:35:35.610Z,7.32
2024-05-09T14:38:03.189Z,5.35
2024-05-09T14:40:40.473Z,4.70
2024-05-09T14:43:15.890Z,7.43
2024-05-09T14:45:44.119Z,9.88
2024-05-09T14:48:15.784Z,12.35
2024-05-09T14:50:43.872Z,8.95
2024-05-09T14:53:12.664Z,5.10
2024-05-09T14:55:42.241Z,6.78
2024-05-09T14:58:11.416Z,6.95
2024-05-09T15:00:47.916Z,6.45
2024-05-09T15:03:19.641Z,6.68
2024-05-09T15:05:51.586Z,5.65
2024-05-09T15:08:20.257Z,8.48
2024-05-09T15:10:50.300Z,5.13
2024-05-09T15:13:21.540Z,6.03
2024-05-09T15:15:49.318Z,6.53
2024-05-09T15:18:18.262Z,8.27
2024-05-09T15:20:46.305Z,8.05
2024-05-09T15:23:14.026Z,10.98
2024-05-09T15:25:42.008Z,6.03
2024-05-09T15:28:09.666Z,8.93
2024-05-09T15:30:37.591Z,5.13
2024-05-09T15:33:06.334Z,6.65
2024-05-09T15:35:34.724Z,6.82
2024-05-09T15:38:03.561Z,9.00
2024-05-09T15:40:38.189Z,6.78
2024-05-09T15:43:09.587Z,5.30
2024-05-09T15:45:38.678Z,7.07
2024-05-09T15:48:06.795Z,5.75
2024-05-09T15:50:38.919Z,6.10
2024-05-09T15:53:09.958Z,8.02
2024-05-09T15:55:38.193Z,6.68
2024-05-09T15:58:06.560Z,6.25
2024-05-09T16:00:42.817Z,5.70
2024-05-09T16:03:14.228Z,9.95
2024-05-09T16:05:46.546Z,5.72
2024-05-09T16:08:15.191Z,4.68
2024-05-09T16:10:48.500Z,6.30
2024-05-09T16:13:40.022Z,7.78
2024-05-09T16:16:08.318Z,11.25
2024-05-09T16:18:36.040Z,7.90
2024-05-09T16:21:03.081Z,7.20
2024-05-09T16:23:30.058Z,6.28
2024-05-09T16:26:00.679Z,9.75
2024-05-09T16:28:34.151Z,7.55
2024-05-09T16:31:04.189Z,7.65
2024-05-09T16:33:34.652Z,9.35
2024-05-09T16:36:06.952Z,6.97
2024-05-09T16:38:34.168Z,7.82
2024-05-09T16:41:02.931Z,9.35
2024-05-09T16:43:30.012Z,8.18
2024-05-09T16:46:00.469Z,10.93
2024-05-09T16:48:27.861Z,12.00
2024-05-09T16:50:54.949Z,8.40
2024-05-09T16:53:22.016Z,11.38
2024-05-09T16:55:49.253Z,10.77
2024-05-09T16:58:16.622Z,9.35
2024-05-09T17:00:46.072Z,12.85
2024-05-09T17:03:21.119Z,9.18
2024-05-09T17:05:48.592Z,11.57
2024-05-09T17:08:21.196Z,6.70
2024-05-09T17:10:51.306Z,8.35
2024-05-09T17:13:21.300Z,10.00
2024-05-09T17:15:52.403Z,10.40
2024-05-09T17:18:22.584Z,8.73
2024-05-09T17:20:51.587Z,12.65
2024-05-09T17:23:18.718Z,11.50
2024-05-09T17:25:48.534Z,7.45
2024-05-09T17:28:18.797Z,9.77
2024-05-09T17:30:55.919Z,11.40
2024-05-09T17:33:26.789Z,11.48
2024-05-09T17:35:56.146Z,9.15
2024-05-09T17:38:35.251Z,9.73
2024-05-09T17:44:31.385Z,6.10
2024-05-09T17:47:01.669Z,7.55
2024-05-09T17:49:31.517Z,11.65
2024-05-09T17:52:01.229Z,6.90
2024-05-09T17:54:31.247Z,8.68
2024-05-09T17:57:01.502Z,7.93
2024-05-09T17:59:29.367Z,11.27
2024-05-09T18:01:57.681Z,8.27
2024-05-09T18:04:25.044Z,9.27
2024-05-09T18:06:55.109Z,8.15
2024-05-09T18:09:22.822Z,9.32
2024-05-09T18:11:50.114Z,9.75
2024-05-09T18:14:19.420Z,10.82
2024-05-09T18:16:49.468Z,11.95
2024-05-09T18:19:28.347Z,8.18
2024-05-09T18:22:01.332Z,8.80
2024-05-09T18:30:45.517Z,10.07
2024-05-09T18:33:17.130Z,10.43
2024-05-09T18:35:51.735Z,11.48
2024-05-09T18:38:22.270Z,14.70
2024-05-09T18:41:04.442Z,11.38
2024-05-09T18:43:45.167Z,12.40
2024-05-09T18:46:22.315Z,15.57
2024-05-09T18:48:49.926Z,14.35
2024-05-09T18:51:17.155Z,14.10
2024-05-09T18:53:45.092Z,11.15
2024-05-09T18:56:12.411Z,11.02
2024-05-09T18:58:39.452Z,13.90
2024-05-09T19:01:06.556Z,11.13
2024-05-09T19:03:35.267Z,10.90
2024-05-09T19:06:02.731Z,17.23
2024-05-09T19:08:30.946Z,18.33
2024-05-09T19:11:01.555Z,14.70
2024-05-09T19:13:28.795Z,18.00
2024-05-09T19:16:03.989Z,12.93
2024-05-09T19:18:38.099Z,14.95
2024-05-09T19:21:05.570Z,13.45
2024-05-09T19:23:35.483Z,15.55
2024-05-09T19:26:05.257Z,13.65
2024-05-09T19:28:32.535Z,15.23
2024-05-09T19:30:59.661Z,14.40
2024-05-09T19:33:26.692Z,18.02
2024-05-09T19:35:54.208Z,13.52
2024-05-09T19:38:24.283Z,13.50
2024-05-09T19:40:51.377Z,12.13
2024-05-09T19:43:18.740Z,12.02
2024-05-09T19:45:46.929Z,13.93
2024-05-09T19:48:14.482Z,12.63
2024-05-09T19:50:44.211Z,18.45
2024-05-09T19:53:15.860Z,16.73
2024-05-09T19:55:43.314Z,12.43
2024-05-09T19:58:11.530Z,14.05
2024-05-09T20:00:42.118Z,12.25
2024-05-09T20:03:12.647Z,14.70
2024-05-09T20:08:11.374Z,21.48
2024-05-09T20:10:41.597Z,15.85
2024-05-09T20:13:09.183Z,15.90
2024-05-09T20:15:37.931Z,16.40
2024-05-09T20:18:06.417Z,17.40
2024-05-09T20:20:39.249Z,13.60
2024-05-09T20:23:13.221Z,15.45
2024-05-09T20:25:40.930Z,17.30
2024-05-09T20:28:08.210Z,18.98
2024-05-09T20:30:36.351Z,13.82
2024-05-09T20:33:07.509Z,14.80
2024-05-09T20:35:36.226Z,14.50
2024-05-09T20:38:04.376Z,12.85
2024-05-09T20:40:36.114Z,15.05
2024-05-09T20:43:07.049Z,12.60
2024-05-09T20:45:34.954Z,13.50
2024-05-09T20:48:02.581Z,22.25
2024-05-09T20:50:37.246Z,13.75
2024-05-09T20:53:13.050Z,14.18
2024-05-09T20:55:41.818Z,14.27
2024-05-09T20:58:09.703Z,14.35
2024-05-09T21:00:40.727Z,12.73
2024-05-09T21:03:11.811Z,13.10
2024-05-09T21:05:40.153Z,14.07
2024-05-09T21:08:07.858Z,13.18
2024-05-09T21:10:36.537Z,12.35
2024-05-09T21:13:06.704Z,15.55
2024-05-09T21:15:35.118Z,16.17
2024-05-09T21:18:02.992Z,15.85
2024-05-09T21:20:32.953Z,17.40
2024-05-09T21:23:01.906Z,14.50
2024-05-09T21:25:29.547Z,16.70
2024-05-09T21:27:56.708Z,11.93
2024-05-09T21:32:54.224Z,12.38
2024-05-09T21:35:21.394Z,13.45
2024-05-09T21:37:48.549Z,11.82
2024-05-09T21:40:24.370Z,10.98
2024-05-09T21:42:58.497Z,14.95
2024-05-09T21:45:25.507Z,14.98
2024-05-09T21:47:52.783Z,13.82
2024-05-09T21:50:27.357Z,12.57
2024-05-09T21:52:58.950Z,11.10
2024-05-09T21:55:26.087Z,11.45
2024-05-09T21:57:53.185Z,10.93
2024-05-09T22:00:28.423Z,13.10
2024-05-09T22:03:02.584Z,12.48
2024-05-09T22:05:29.823Z,13.48
2024-05-09T22:07:57.275Z,14.68
2024-05-09T22:10:31.000Z,11.52
2024-05-09T22:13:01.757Z,11.48
2024-05-09T22:15:29.108Z,15.68
2024-05-09T22:17:57.625Z,12.55
2024-05-09T22:20:34.278Z,13.93
2024-05-09T22:23:05.353Z,11.95
2024-05-09T22:25:32.961Z,13.55
2024-05-09T22:28:01.706Z,23.85
2024-05-09T22:30:35.945Z,11.30
2024-05-09T22:33:10.871Z,9.48
2024-05-09T22:35:40.040Z,13.02
2024-05-09T22:38:07.336Z,12.73
2024-05-09T22:40:44.956Z,13.07
2024-05-09T22:43:23.447Z,11.45
2024-05-09T22:45:54.987Z,12.43
2024-05-09T22:48:26.168Z,11.20
2024-05-09T22:50:54.559Z,12.40
2024-05-09T22:53:27.131Z,11.45
2024-05-09T22:55:54.484Z,14.63
2024-05-09T22:58:23.379Z,12.73
2024-05-09T23:00:50.944Z,8.98
2024-05-09T23:03:21.103Z,10.05
2024-05-09T23:05:48.689Z,11.15
2024-05-09T23:08:15.683Z,11.95
2024-05-09T23:10:42.843Z,12.60
2024-05-09T23:13:10.018Z,10.73
2024-05-09T23:15:38.444Z,11.73
2024-05-09T23:18:06.337Z,10.32
2024-05-09T23:20:38.064Z,10.13
2024-05-09T23:23:11.421Z,10.20
2024-05-09T23:25:41.409Z,8.70
2024-05-09T23:28:08.887Z,10.02
2024-05-09T23:30:39.346Z,10.93
2024-05-09T23:33:14.241Z,9.50
2024-05-09T23:35:42.463Z,10.85
2024-05-09T23:38:09.786Z,11.75
2024-05-09T23:40:39.972Z,11.88
2024-05-09T23:43:10.915Z,10.05
2024-05-09T23:45:40.110Z,9.93
2024-05-09T23:48:11.088Z,11.38
2024-05-09T23:50:40.074Z,10.52
2024-05-09T23:53:09.470Z,11.57
2024-05-09T23:55:37.911Z,10.25
2024-05-09T23:58:05.789Z,9.23
